Time;durP1;ratioP1;P1;durP2;ratioP2;P2;SDS_P1;SDS_P2;PMS_P1;PMS_P2;Temp;Humidity;BMP_temperature;BMP_pressure;BME280_temperature;BME280_humidity;BME280_pressure;Samples;Min_cycle;Max_cycle;Signal;HPM_P1;HPM_P2
2021/12/13 00:00:19;;;;;;;45.35;19.60;;;;;;;0.21;100.00;99818.94;1605736;87;21521;-69
2021/12/13 00:03:02;;;;;;;49.80;21.65;;;;;;;0.19;100.00;99819.18;1608819;88;21232;-70
2021/12/13 00:05:38;;;;;;;52.27;21.33;;;;;;;0.18;100.00;99816.72;1610842;87;21044;-70
2021/12/13 00:08:09;;;;;;;63.83;24.18;;;;;;;0.17;100.00;99814.55;1608893;87;21027;-69
2021/12/13 00:10:51;;;;;;;50.23;21.02;;;;;;;0.17;100.00;99815.08;1608311;87;21025;-69
2021/12/13 00:13:24;;;;;;;44.58;20.17;;;;;;;0.19;100.00;99810.27;1609943;87;21056;-69
2021/12/13 00:15:53;;;;;;;;;;;;;;;0.20;100.00;99805.15;1609162;87;21159;-71
2021/12/13 00:18:30;;;;;;;46.25;18.87;;;;;;;0.21;100.00;99800.04;1612694;87;20246;-71
2021/12/13 00:21:08;;;;;;;54.25;22.80;;;;;;;0.21;100.00;99787.89;1609291;87;21058;-70
2021/12/13 00:23:54;;;;;;;52.80;23.60;;;;;;;0.23;100.00;99790.64;1608428;88;21010;-70
2021/12/13 00:26:29;;;;;;;58.63;23.15;;;;;;;0.26;100.00;99785.28;1616110;88;21052;-71
2021/12/13 00:28:57;;;;;;;59.20;23.52;;;;;;;0.29;100.00;99787.50;1624078;87;21273;-72
2021/12/13 00:32:08;;;;;;;60.38;23.00;;;;;;;0.29;100.00;99786.97;1607704;87;21093;-71
2021/12/13 00:34:41;;;;;;;56.85;22.02;;;;;;;0.29;100.00;99789.67;1614556;87;21090;-71
2021/12/13 00:37:31;;;;;;;53.20;20.35;;;;;;;0.28;100.00;99787.21;1616439;87;21130;-70
2021/12/13 00:40:15;;;;;;;62.50;23.80;;;;;;;0.28;100.00;99781.81;1610632;88;20985;-69
2021/12/13 00:42:57;;;;;;;50.75;22.27;;;;;;;0.27;100.00;99779.64;1608320;87;21130;-68
2021/12/13 00:45:27;;;;;;;54.77;22.87;;;;;;;0.28;100.00;99781.81;1609521;86;21160;-69
2021/12/13 00:47:53;;;;;;;56.92;22.90;;;;;;;0.30;100.00;99767.53;1635243;86;21018;-69
2021/12/13 00:50:27;;;;;;;49.18;19.70;;;;;;;0.30;100.00;99764.30;1643695;86;21217;-69
2021/12/13 00:52:54;;;;;;;55.63;20.48;;;;;;;0.30;100.00;99766.19;1635379;86;21173;-67
2021/12/13 00:55:24;;;;;;;55.60;20.85;;;;;;;0.29;100.00;99767.25;1635872;86;21086;-70
2021/12/13 00:58:10;;;;;;;53.15;21.80;;;;;;;0.29;100.00;99764.02;1632282;86;21236;-70
2021/12/13 01:00:53;;;;;;;52.95;23.20;;;;;;;0.29;100.00;99758.61;1635046;86;21203;-69
2021/12/13 01:03:35;;;;;;;53.13;22.07;;;;;;;0.31;100.00;99758.38;1634250;86;21789;-71
2021/12/13 01:06:57;;;;;;;54.38;22.20;;;;;;;0.33;100.00;99753.55;1632863;86;21644;-69
2021/12/13 01:10:09;;;;;;;51.05;21.60;;;;;;;0.33;100.00;99765.17;1633308;86;21109;-69
2021/12/13 01:12:37;;;;;;;59.73;22.52;;;;;;;0.33;100.00;99769.75;1637171;86;21767;-70
2021/12/13 01:15:25;;;;;;;56.13;22.15;;;;;;;0.32;100.00;99777.56;1634474;86;21677;-70
2021/12/13 01:18:20;;;;;;;49.15;21.65;;;;;;;0.31;100.00;99778.09;1634627;86;21806;-69
2021/12/13 01:20:58;;;;;;;50.80;19.65;;;;;;;0.31;100.00;99775.39;1632911;86;21093;-69
2021/12/13 01:23:17;;;;;;;46.40;20.15;;;;;;;0.32;100.00;99787.02;1632559;86;21097;-69
2021/12/13 01:26:13;;;;;;;45.30;19.45;;;;;;;0.29;100.00;99786.15;1636400;86;21033;-69
2021/12/13 01:28:42;;;;;;;47.58;19.37;;;;;;;0.27;100.00;99782.34;1634430;86;21125;-69
2021/12/13 01:31:26;;;;;;;38.92;18.37;;;;;;;0.27;100.00;99793.67;1638296;86;21146;-69
2021/12/13 01:33:53;;;;;;;42.08;17.67;;;;;;;0.24;100.00;99782.83;1627452;86;20974;-69
2021/12/13 01:36:26;;;;;;;48.35;20.55;;;;;;;0.25;100.00;99784.47;1583047;89;21055;-69
2021/12/13 01:39:00;;;;;;;38.83;18.02;;;;;;;0.25;100.00;99779.59;1563408;90;21106;-69
2021/12/13 01:41:43;;;;;;;42.25;17.35;;;;;;;0.26;100.00;99782.05;1611802;87;21015;-70
2021/12/13 01:44:18;;;;;;;42.73;20.43;;;;;;;0.25;100.00;99778.24;1595256;89;21155;-69
2021/12/13 01:46:53;;;;;;;44.48;18.40;;;;;;;0.23;100.00;99775.78;1591992;89;21541;-70
2021/12/13 01:49:19;;;;;;;43.63;19.92;;;;;;;0.24;100.00;99769.33;1603241;87;21047;-69
2021/12/13 01:51:47;;;;;;;50.63;21.45;;;;;;;0.23;100.00;99758.23;1583130;89;21067;-69
2021/12/13 01:54:20;;;;;;;45.95;18.98;;;;;;;0.25;100.00;99761.52;1620358;87;21447;-70
2021/12/13 01:56:57;;;;;;;44.48;20.88;;;;;;;0.25;100.00;99764.22;1612578;88;21142;-70
2021/12/13 02:02:13;;;;;;;50.60;23.55;;;;;;;0.29;100.00;99761.84;1564614;90;21031;-70
2021/12/13 02:04:42;;;;;;;49.70;21.77;;;;;;;0.28;100.00;99765.61;1622222;87;21091;-70
2021/12/13 02:07:09;;;;;;;53.30;23.12;;;;;;;0.25;100.00;99764.22;1610273;88;21155;-70
2021/12/13 02:09:43;;;;;;;52.23;22.80;;;;;;;0.24;100.00;99759.88;1619511;87;21164;-70
2021/12/13 02:12:17;;;;;;;57.27;22.02;;;;;;;0.24;100.00;99763.11;1619836;87;20985;-70
2021/12/13 02:16:56;;;;;;;57.80;22.30;;;;;;;0.22;100.00;99772.80;1608243;87;21486;-69
2021/12/13 02:17:22;;;;;;;56.42;22.80;;;;;;;0.22;100.00;99768.75;1638140;86;21549;-70
2021/12/13 02:20:00;;;;;;;61.65;24.00;;;;;;;0.26;100.00;99769.08;1647268;86;21063;-69
2021/12/13 02:22:46;;;;;;;58.13;23.30;;;;;;;0.27;100.00;99762.63;1633852;86;21205;-70
2021/12/13 02:25:37;;;;;;;58.25;23.30;;;;;;;0.24;100.00;99766.63;1635059;86;20946;-70
2021/12/13 02:28:18;;;;;;;63.28;25.00;;;;;;;0.21;100.00;99761.71;1637671;86;21033;-69
2021/12/13 02:31:02;;;;;;;55.23;23.25;;;;;;;0.21;100.00;99761.71;1641556;86;21153;-70
2021/12/13 02:33:40;;;;;;;59.53;23.45;;;;;;;0.23;100.00;99755.53;1635621;86;21061;-69
2021/12/13 02:36:17;;;;;;;65.95;25.08;;;;;;;0.22;100.00;99759.30;1631493;86;21331;-69
2021/12/13 02:38:47;;;;;;;59.67;24.27;;;;;;;0.22;100.00;99759.83;1634464;86;20944;-70
2021/12/13 02:41:14;;;;;;;64.05;24.25;;;;;;;0.24;100.00;99755.00;1634352;86;21118;-70
2021/12/13 02:43:45;;;;;;;53.30;21.65;;;;;;;0.28;100.00;99754.81;1635951;86;21605;-69
2021/12/13 02:46:11;;;;;;;62.67;24.05;;;;;;;0.29;100.00;99753.74;1637259;86;21031;-70
2021/12/13 02:48:43;;;;;;;57.80;22.90;;;;;;;0.29;100.00;99750.52;1636595;86;22019;-70
2021/12/13 02:51:27;;;;;;;58.43;23.97;;;;;;;0.29;100.00;99752.39;1629431;86;21534;-70
2021/12/13 02:54:02;;;;;;;52.67;21.62;;;;;;;0.29;100.00;99748.34;1636846;86;20950;-69
2021/12/13 02:56:33;;;;;;;50.83;21.37;;;;;;;0.30;100.00;99745.93;1630981;86;21185;-69
2021/12/13 02:59:03;;;;;;;52.75;21.02;;;;;;;0.27;100.00;99741.84;1637902;86;21077;-70
2021/12/13 03:01:40;;;;;;;59.20;23.38;;;;;;;0.27;100.00;99732.92;1625892;86;21589;-70
2021/12/13 03:04:10;;;;;;;47.60;19.02;;;;;;;0.27;100.00;99726.17;1642964;86;21040;-70
2021/12/13 03:06:46;;;;;;;54.23;21.55;;;;;;;0.30;100.00;99725.68;1641431;86;21033;-70
2021/12/13 03:09:17;;;;;;;49.38;19.77;;;;;;;0.31;100.00;99720.56;1643846;86;20966;-70
2021/12/13 03:11:44;;;;;;;43.85;19.00;;;;;;;0.31;100.00;99711.94;1655101;86;20938;-69
2021/12/13 03:14:27;;;;;;;50.17;19.50;;;;;;;0.32;100.00;99704.12;1653611;86;21523;-69
2021/12/13 03:17:02;;;;;;;46.63;19.07;;;;;;;0.34;100.00;99701.17;1656463;86;21453;-69
2021/12/13 03:19:40;;;;;;;47.70;19.42;;;;;;;0.33;100.00;99702.23;1649121;85;21194;-70
2021/12/13 03:22:30;;;;;;;46.63;19.42;;;;;;;0.32;100.00;99689.80;1608244;87;21052;-70
2021/12/13 03:25:25;;;;;;;41.73;18.45;;;;;;;0.32;100.00;99693.32;1610000;88;21631;-70
2021/12/13 03:28:28;;;;;;;39.90;18.37;;;;;;;0.36;100.00;99694.17;1632028;86;21197;-70
2021/12/13 03:31:03;;;;;;;39.60;17.70;;;;;;;0.36;100.00;99690.95;1634252;86;28801;-69
2021/12/13 03:33:35;;;;;;;42.90;16.85;;;;;;;0.37;100.00;99691.23;1636309;86;21564;-69
2021/12/13 03:36:10;;;;;;;43.28;18.23;;;;;;;0.38;100.00;99700.16;1635473;86;21069;-69
2021/12/13 03:38:44;;;;;;;41.95;17.45;;;;;;;0.37;100.00;99701.22;1639740;86;21157;-68
2021/12/13 03:41:14;;;;;;;45.67;17.82;;;;;;;0.39;100.00;99699.91;1610594;89;21123;-69
2021/12/13 03:43:46;;;;;;;40.17;17.00;;;;;;;0.39;100.00;99702.61;1610532;89;20957;-68
2021/12/13 03:46:15;;;;;;;41.02;17.12;;;;;;;0.38;100.00;99707.72;1610650;88;20937;-69
2021/12/13 03:48:43;;;;;;;44.80;18.27;;;;;;;0.40;100.00;99716.40;1611677;87;21134;-70
2021/12/13 03:51:14;;;;;;;47.78;19.05;;;;;;;0.41;100.00;99719.39;1635955;86;20909;-69
2021/12/13 03:53:40;;;;;;;41.18;17.10;;;;;;;0.41;100.00;99718.03;1648014;86;21155;-68
2021/12/13 03:56:12;;;;;;;41.13;18.42;;;;;;;0.41;100.00;99718.56;1641178;85;21101;-69
2021/12/13 03:58:51;;;;;;;42.78;17.52;;;;;;;0.39;100.00;99725.56;1638868;86;21070;-69
2021/12/13 04:01:28;;;;;;;45.35;19.73;;;;;;;0.39;100.00;99728.27;1622913;86;20986;-69
2021/12/13 04:03:58;;;;;;;43.60;17.55;;;;;;;0.39;100.00;99722.87;1635025;86;36296;-69
2021/12/13 04:06:25;;;;;;;50.98;19.55;;;;;;;0.39;100.00;99719.34;1636638;86;21145;-69
2021/12/13 04:08:56;;;;;;;46.50;19.27;;;;;;;0.40;100.00;99723.69;1635285;86;20912;-69
2021/12/13 04:11:24;;;;;;;44.73;19.02;;;;;;;0.41;100.00;99719.92;1635290;86;20920;-69
2021/12/13 04:14:09;;;;;;;46.83;17.98;;;;;;;0.43;100.00;99716.44;1633972;86;22054;-69
2021/12/13 04:16:50;;;;;;;45.35;18.90;;;;;;;0.45;100.00;99717.84;1633397;86;21034;-69
2021/12/13 04:19:20;;;;;;;51.58;19.82;;;;;;;0.47;100.00;99718.41;1638216;86;21567;-69
2021/12/13 04:22:00;;;;;;;45.58;18.65;;;;;;;0.47;100.00;99725.16;1637261;86;20962;-70
2021/12/13 04:24:41;;;;;;;67.27;22.65;;;;;;;0.47;100.00;99721.11;1633763;86;20978;-70
2021/12/13 04:27:28;;;;;;;57.95;21.95;;;;;;;0.48;100.00;99709.23;1634010;86;21031;-70
2021/12/13 04:30:00;;;;;;;61.85;22.32;;;;;;;0.47;100.00;99717.05;1636924;86;21858;-70
2021/12/13 04:32:34;;;;;;;37.45;14.30;;;;;;;0.46;100.00;99720.82;1636148;86;21211;-69
2021/12/13 04:35:04;;;;;;;56.92;21.57;;;;;;;0.47;100.00;99726.52;1636864;86;21152;-69
2021/12/13 04:37:36;;;;;;;58.05;21.12;;;;;;;0.47;100.00;99725.16;1633811;86;21252;-69
2021/12/13 04:40:09;;;;;;;58.17;21.45;;;;;;;0.48;100.00;99728.15;1637546;86;21563;-69
2021/12/13 04:42:36;;;;;;;60.43;21.85;;;;;;;0.48;100.00;99733.55;1633920;86;20966;-70
2021/12/13 04:45:19;;;;;;;72.78;24.05;;;;;;;0.48;100.00;99735.44;1635181;86;21138;-70
2021/12/13 04:47:58;;;;;;;63.70;23.45;;;;;;;0.47;100.00;99739.20;1635109;86;21114;-70
2021/12/13 04:50:30;;;;;;;65.55;23.00;;;;;;;0.48;100.00;99743.53;1637083;86;21175;-70
2021/12/13 04:52:56;;;;;;;59.48;22.13;;;;;;;0.50;100.00;99740.88;1637515;86;21017;-70
2021/12/13 04:55:42;;;;;;;58.08;22.22;;;;;;;0.51;100.00;99743.87;1634512;86;20943;-70
2021/12/13 04:58:11;;;;;;;63.92;22.40;;;;;;;0.49;100.00;99743.30;1632755;86;21643;-70
2021/12/13 05:00:42;;;;;;;73.65;24.92;;;;;;;0.48;100.00;99738.13;1630748;86;21088;-70
2021/12/13 05:03:10;;;;;;;60.45;24.00;;;;;;;0.48;100.00;99734.08;1625044;86;21099;-69
2021/12/13 05:05:36;;;;;;;61.15;23.52;;;;;;;0.49;100.00;99729.78;1610285;86;21091;-69
2021/12/13 05:08:08;;;;;;;59.27;21.05;;;;;;;0.52;100.00;99722.55;1625540;87;21001;-69
2021/12/13 05:10:35;;;;;;;51.60;19.48;;;;;;;0.55;100.00;99722.58;1614266;88;21144;-69
2021/12/13 05:13:12;;;;;;;58.20;21.20;;;;;;;0.57;100.00;99728.03;1583758;88;21043;-69
2021/12/13 05:15:42;;;;;;;63.75;21.10;;;;;;;0.58;100.00;99733.69;1606397;87;20972;-69
2021/12/13 05:18:19;;;;;;;52.62;20.55;;;;;;;0.58;100.00;99740.97;1611746;87;21642;-70
2021/12/13 05:20:45;;;;;;;57.67;22.48;;;;;;;0.60;100.00;99741.02;1615333;87;21547;-69
2021/12/13 05:23:16;;;;;;;57.10;21.75;;;;;;;0.60;100.00;99741.02;1610852;88;22150;-70
2021/12/13 05:25:53;;;;;;;59.98;23.95;;;;;;;0.60;100.00;99738.84;1632001;85;21050;-70
2021/12/13 05:28:25;;;;;;;54.30;21.87;;;;;;;0.60;100.00;99734.26;1642637;86;21017;-69
2021/12/13 05:30:58;;;;;;;51.15;19.37;;;;;;;0.59;100.00;99738.56;1627550;86;21017;-69
2021/12/13 05:33:29;;;;;;;56.25;20.88;;;;;;;0.59;100.00;99745.31;1634820;86;21081;-69
2021/12/13 05:35:59;;;;;;;51.88;19.92;;;;;;;0.58;100.00;99747.20;1636343;86;21551;-70
2021/12/13 05:38:31;;;;;;;57.17;21.82;;;;;;;0.58;100.00;99740.44;1631902;86;20961;-69
2021/12/13 05:41:04;;;;;;;62.88;22.17;;;;;;;0.60;100.00;99745.59;1638277;86;21052;-69
2021/12/13 05:43:43;;;;;;;60.48;22.40;;;;;;;0.62;100.00;99741.59;1633483;86;20964;-69
2021/12/13 05:46:13;;;;;;;55.45;21.30;;;;;;;0.63;100.00;99740.52;1633149;86;20982;-69
2021/12/13 05:49:00;;;;;;;61.85;22.82;;;;;;;0.62;100.00;99736.72;1642287;86;21201;-69
2021/12/13 05:51:42;;;;;;;58.15;21.48;;;;;;;0.62;100.00;99742.94;1637061;86;21133;-69
2021/12/13 05:54:14;;;;;;;57.10;20.50;;;;;;;0.63;100.00;99746.45;1638001;86;21003;-69
2021/12/13 05:56:46;;;;;;;51.05;22.20;;;;;;;0.63;100.00;99747.28;1639081;85;21711;-69
2021/12/13 05:59:31;;;;;;;56.13;20.17;;;;;;;0.62;100.00;99753.74;1646341;86;20965;-70
2021/12/13 06:02:19;;;;;;;56.60;20.70;;;;;;;0.61;100.00;99763.45;1636224;86;21161;-70
2021/12/13 06:05:18;;;;;;;60.10;21.90;;;;;;;0.62;100.00;99763.20;1634832;86;21105;-70
2021/12/13 06:07:52;;;;;;;57.90;21.95;;;;;;;0.64;100.00;99756.20;1632040;86;21180;-70
2021/12/13 06:10:21;;;;;;;56.70;20.82;;;;;;;0.65;100.00;99753.79;1637155;86;21016;-70
2021/12/13 06:12:52;;;;;;;56.35;21.70;;;;;;;0.66;100.00;99760.83;1632686;86;20986;-70
2021/12/13 06:15:35;;;;;;;61.28;23.65;;;;;;;0.67;100.00;99754.36;1638816;86;21159;-70
2021/12/13 06:18:12;;;;;;;49.75;20.55;;;;;;;0.72;100.00;99750.92;1615143;87;21085;-69
2021/12/13 06:20:58;;;;;;;58.63;22.73;;;;;;;0.72;100.00;99746.87;1642066;86;21066;-70
2021/12/13 06:23:27;;;;;;;50.23;19.60;;;;;;;0.72;100.00;99749.57;1635221;86;21097;-70
2021/12/13 06:26:03;;;;;;;56.13;20.75;;;;;;;0.70;100.00;99739.01;1636230;86;20970;-70
2021/12/13 06:28:35;;;;;;;55.35;21.35;;;;;;;0.71;100.00;99731.72;1634451;86;21463;-70
2021/12/13 06:31:09;;;;;;;45.35;18.87;;;;;;;0.71;100.00;99724.43;1633329;86;21598;-70
2021/12/13 06:33:53;;;;;;;47.35;19.07;;;;;;;0.72;100.00;99732.00;1639179;86;20991;-70
2021/12/13 06:36:35;;;;;;;49.20;19.87;;;;;;;0.72;100.00;99736.06;1632812;86;21589;-70
2021/12/13 06:39:08;;;;;;;;;;;;;;;0.74;100.00;99740.69;1634595;86;21086;-70
2021/12/13 06:41:41;;;;;;;49.18;19.82;;;;;;;0.75;100.00;99743.67;1639101;86;21065;-70
2021/12/13 06:44:25;;;;;;;55.78;20.12;;;;;;;0.74;100.00;99743.39;1634919;86;20951;-71
2021/12/13 06:47:03;;;;;;;44.75;19.15;;;;;;;0.73;100.00;99750.67;1634407;86;21105;-71
2021/12/13 06:49:53;;;;;;;58.42;21.25;;;;;;;0.78;100.00;99751.29;1633786;86;21191;-70
2021/12/13 06:52:26;;;;;;;44.60;18.80;;;;;;;0.81;100.00;99745.39;1634935;86;21090;-70
2021/12/13 06:55:09;;;;;;;45.05;18.82;;;;;;;0.79;100.00;99738.88;1637306;86;21573;-70
2021/12/13 06:57:54;;;;;;;38.33;17.02;;;;;;;0.81;100.00;99733.23;1633054;86;21140;-71
2021/12/13 07:00:26;;;;;;;41.33;18.48;;;;;;;0.82;100.00;99727.58;1634329;86;20978;-70
2021/12/13 07:03:05;;;;;;;;;;;;;;;0.87;100.00;99725.48;1639945;86;21204;-69
2021/12/13 07:05:42;;;;;;;42.27;16.95;;;;;;;0.89;100.00;99724.70;1637701;86;20162;-69
2021/12/13 07:08:26;;;;;;;46.40;19.65;;;;;;;0.91;100.00;99726.63;1639662;86;21844;-69
2021/12/13 07:10:58;;;;;;;47.33;19.30;;;;;;;0.94;100.00;99730.19;1639970;86;21592;-70
2021/12/13 07:13:43;;;;;;;41.73;18.05;;;;;;;0.93;100.00;99723.95;1635805;86;21153;-70
2021/12/13 07:16:21;;;;;;;42.80;17.90;;;;;;;0.93;100.00;99742.06;1635428;86;21026;-73
2021/12/13 07:18:58;;;;;;;52.83;19.90;;;;;;;0.90;100.00;99763.65;1628779;86;21120;-74
2021/12/13 07:21:31;;;;;;;42.58;18.07;;;;;;;0.88;100.00;99756.85;1635998;86;21512;-80
2021/12/13 07:24:16;;;;;;;48.35;19.62;;;;;;;0.87;100.00;99749.28;1624726;87;21498;-76
2021/12/13 07:27:05;;;;;;;48.00;18.62;;;;;;;0.89;100.00;99753.08;1638014;86;21217;-83
2021/12/13 07:29:50;;;;;;;38.73;17.73;;;;;;;0.91;100.00;99757.71;1615161;86;21619;-78
2021/12/13 07:32:29;;;;;;;46.15;19.25;;;;;;;0.93;100.00;99760.98;1581403;88;21067;-77
2021/12/13 07:35:17;;;;;;;42.70;18.23;;;;;;;0.93;100.00;99764.51;1605756;87;21536;-86
2021/12/13 07:37:52;;;;;;;42.75;17.75;;;;;;;0.94;100.00;99765.33;1606605;87;21020;-79
2021/12/13 07:40:42;;;;;;;41.00;17.07;;;;;;;0.96;100.00;99774.83;1594915;87;21532;-78
2021/12/13 07:43:30;;;;;;;41.33;18.55;;;;;;;1.00;100.00;99777.85;1624866;86;21534;-77
2021/12/13 07:46:11;;;;;;;35.68;16.48;;;;;;;1.00;100.00;99768.39;1634530;86;21039;-76
2021/12/13 07:48:46;;;;;;;40.28;17.98;;;;;;;1.02;100.00;99770.84;1641840;86;21577;-77
2021/12/13 07:51:33;;;;;;;40.12;18.60;;;;;;;1.02;100.00;99785.19;1635009;86;21003;-82
2021/12/13 07:54:06;;;;;;;39.88;17.82;;;;;;;1.01;100.00;99789.48;1638008;86;21011;-77
2021/12/13 07:56:39;;;;;;;43.80;18.32;;;;;;;1.01;100.00;99777.32;1641072;86;25334;-81
2021/12/13 07:59:29;;;;;;;47.58;20.52;;;;;;;1.01;100.00;99778.67;1612153;87;20996;-75
2021/12/13 08:02:17;;;;;;;44.15;19.90;;;;;;;1.03;100.00;99778.71;1575615;89;21200;-76
2021/12/13 08:04:55;;;;;;;63.98;30.05;;;;;;;1.05;100.00;99772.52;1636202;85;21473;-76
2021/12/13 08:07:35;;;;;;;61.48;30.25;;;;;;;1.09;100.00;99781.77;1620984;86;20932;-77
2021/12/13 08:10:08;;;;;;;;;;;;;;;1.09;100.00;99787.72;1629025;86;21054;-78
2021/12/13 08:12:42;;;;;;;49.53;20.25;;;;;;;1.08;100.00;99792.84;1629965;86;20175;-78
2021/12/13 08:15:45;;;;;;;41.50;19.37;;;;;;;1.05;100.00;99789.28;1629235;86;21018;-77
2021/12/13 08:18:34;;;;;;;39.90;18.10;;;;;;;1.05;100.00;99782.52;1622170;87;22032;-78
2021/12/13 08:21:07;;;;;;;38.20;17.07;;;;;;;1.06;100.00;99785.51;1598956;88;20973;-78
2021/12/13 08:23:57;;;;;;;38.17;18.10;;;;;;;1.07;100.00;99774.45;1608143;89;21164;-76
2021/12/13 08:26:39;;;;;;;43.58;17.45;;;;;;;1.09;100.00;99781.77;1613067;88;20988;-76
2021/12/13 08:29:27;;;;;;;51.83;18.07;;;;;;;1.09;100.00;99775.02;1611637;88;21167;-77
2021/12/13 08:32:00;;;;;;;49.73;18.62;;;;;;;1.09;100.00;99768.26;1611802;88;21017;-78
2021/12/13 08:34:34;;;;;;;58.02;19.05;;;;;;;1.08;100.00;99770.67;1610345;89;20969;-75
2021/12/13 08:37:17;;;;;;;47.30;19.60;;;;;;;1.06;100.00;99760.64;1611745;88;20949;-73
2021/12/13 08:39:48;;;;;;;33.30;16.57;;;;;;;1.06;100.00;99756.59;1609484;89;21501;-74
2021/12/13 08:42:22;;;;;;;53.20;20.85;;;;;;;1.06;100.00;99751.71;1590974;87;22177;-78
2021/12/13 08:45:03;;;;;;;49.83;21.42;;;;;;;1.06;100.00;99763.34;1610330;89;20981;-78
2021/12/13 08:47:51;;;;;;;62.15;24.80;;;;;;;1.05;100.00;99760.36;1611503;87;20944;-78
2021/12/13 08:50:25;;;;;;;56.13;23.38;;;;;;;1.04;100.00;99762.77;1611433;89;21013;-78
2021/12/13 08:53:03;;;;;;;60.45;25.10;;;;;;;1.00;100.00;99765.69;1610573;89;20977;-84
2021/12/13 08:55:45;;;;;;;49.60;23.40;;;;;;;0.98;100.00;99767.28;1590534;89;20937;-78
2021/12/13 08:58:17;;;;;;;42.13;18.35;;;;;;;1.01;100.00;99751.64;1608906;87;20969;-78
2021/12/13 09:01:01;;;;;;;41.33;19.73;;;;;;;1.04;100.00;99737.09;1610684;89;21461;-73
2021/12/13 09:03:35;;;;;;;45.70;19.85;;;;;;;1.07;100.00;99739.30;1610532;89;21472;-81
2021/12/13 09:06:22;;;;;;;53.17;20.43;;;;;;;1.10;100.00;99756.38;1608619;87;20937;-77
2021/12/13 09:09:11;;;;;;;51.35;22.13;;;;;;;1.10;100.00;99756.38;1610463;87;21209;-78
2021/12/13 09:11:58;;;;;;;52.70;22.13;;;;;;;1.09;100.00;99755.27;1610478;89;21016;-78
2021/12/13 09:14:39;;;;;;;52.87;20.67;;;;;;;1.10;100.00;99748.80;1610638;89;21056;-73
2021/12/13 09:17:32;;;;;;;46.37;19.70;;;;;;;1.12;100.00;99740.72;1610804;89;20941;-78
2021/12/13 09:20:12;;;;;;;46.70;20.68;;;;;;;1.15;100.00;99746.98;1610410;87;20992;-75
2021/12/13 09:22:47;;;;;;;45.70;21.30;;;;;;;1.16;100.00;99765.34;1610730;87;21235;-73
2021/12/13 09:25:41;;;;;;;47.00;22.35;;;;;;;1.13;100.00;99751.83;1610639;89;20929;-76
2021/12/13 09:28:24;;;;;;;45.63;21.65;;;;;;;1.12;100.00;99742.61;1614873;87;21028;-75
2021/12/13 09:31:13;;;;;;;45.40;21.23;;;;;;;1.13;100.00;99751.01;1610940;89;21524;-72
2021/12/13 09:33:54;;;;;;;43.80;21.37;;;;;;;1.15;100.00;99755.09;1610784;88;20972;-72
2021/12/13 09:36:30;;;;;;;46.98;21.33;;;;;;;1.15;100.00;99756.98;1611748;89;20973;-73
2021/12/13 09:39:17;;;;;;;52.85;23.77;;;;;;;1.14;100.00;99758.05;1610484;89;20937;-69
2021/12/13 09:42:00;;;;;;;52.93;21.00;;;;;;;1.14;100.00;99761.58;1611947;88;21024;-72
2021/12/13 09:44:37;;;;;;;43.30;20.30;;;;;;;1.14;100.00;99753.99;1609846;89;21041;-75
2021/12/13 09:47:18;;;;;;;46.53;20.75;;;;;;;1.14;100.00;99752.11;1611773;88;20988;-71
2021/12/13 09:49:57;;;;;;;52.98;21.60;;;;;;;1.17;100.00;99762.39;1611436;89;20894;-71
2021/12/13 09:53:01;;;;;;;47.17;20.52;;;;;;;1.17;100.00;99755.63;1613006;87;21483;-71
2021/12/13 09:55:39;;;;;;;51.37;21.10;;;;;;;1.13;100.00;99753.70;1617764;88;20987;-72
2021/12/13 09:58:23;;;;;;;53.28;22.02;;;;;;;1.11;100.00;99755.31;1618065;88;20973;-73
2021/12/13 10:01:12;;;;;;;52.30;21.17;;;;;;;1.11;100.00;99759.90;1617701;88;21014;-72
2021/12/13 10:03:58;;;;;;;46.18;18.98;;;;;;;1.12;100.00;99764.23;1590624;87;21191;-72
2021/12/13 10:06:36;;;;;;;54.03;21.17;;;;;;;1.11;100.00;99767.48;1617699;88;20927;-74
2021/12/13 10:09:11;;;;;;;49.70;21.87;;;;;;;1.08;100.00;99773.38;1629164;86;21114;-72
2021/12/13 10:11:53;;;;;;;48.08;20.37;;;;;;;1.02;100.00;99763.55;1632949;86;21648;-86
2021/12/13 10:14:27;;;;;;;51.23;20.97;;;;;;;1.01;100.00;99761.10;1584200;88;21041;-87
2021/12/13 10:16:55;;;;;;;53.02;22.20;;;;;;;0.99;100.00;99764.05;1636376;86;21172;-82
2021/12/13 10:19:36;;;;;;;55.75;22.02;;;;;;;0.99;100.00;99764.05;1610463;86;21039;-78
2021/12/13 10:22:05;;;;;;;55.40;21.77;;;;;;;1.01;100.00;99762.45;1635778;86;21118;-73
2021/12/13 10:24:50;;;;;;;56.10;22.93;;;;;;;0.98;100.00;99761.06;1617960;87;21646;-71
2021/12/13 10:27:26;;;;;;;61.53;23.30;;;;;;;0.99;100.00;99755.41;1633825;86;21151;-75
2021/12/13 10:30:01;;;;;;;53.68;21.82;;;;;;;1.04;100.00;99753.31;1651258;86;21185;-72
2021/12/13 10:32:36;;;;;;;53.68;21.12;;;;;;;1.11;100.00;99747.20;1635623;86;21040;-75
2021/12/13 10:35:14;;;;;;;49.65;20.02;;;;;;;1.12;100.00;99739.38;1632603;86;21154;-78
2021/12/13 10:37:47;;;;;;;47.73;19.80;;;;;;;1.14;100.00;99733.72;1635098;86;21051;-77
2021/12/13 10:40:29;;;;;;;43.25;19.37;;;;;;;1.15;100.00;99734.00;1631472;86;21704;-77
2021/12/13 10:43:03;;;;;;;46.88;20.37;;;;;;;1.16;100.00;99734.25;1652361;85;21197;-77
2021/12/13 10:45:39;;;;;;;47.33;21.52;;;;;;;1.17;100.00;99727.24;1621952;86;21081;-75
2021/12/13 10:48:12;;;;;;;41.13;17.80;;;;;;;1.21;100.00;99739.20;1641944;86;21539;-78
2021/12/13 10:50:51;;;;;;;46.92;20.23;;;;;;;1.20;100.00;99741.62;1643051;86;21113;-73
2021/12/13 10:53:23;;;;;;;43.28;19.55;;;;;;;1.20;100.00;99729.98;1622659;86;21741;-73
2021/12/13 10:56:01;;;;;;;45.25;19.95;;;;;;;1.22;100.00;99723.26;1633797;86;21566;-73
2021/12/13 10:58:33;;;;;;;55.08;26.65;;;;;;;1.24;100.00;99729.77;1632194;86;21028;-73
2021/12/13 11:01:11;;;;;;;47.98;22.25;;;;;;;1.27;100.00;99731.97;1630879;86;21190;-73
2021/12/13 11:03:42;;;;;;;43.40;22.10;;;;;;;1.28;100.00;99719.55;1638689;86;20932;-73
2021/12/13 11:06:16;;;;;;;40.48;19.92;;;;;;;1.30;100.00;99713.89;1637594;86;21547;-72
2021/12/13 11:08:46;;;;;;;48.80;19.20;;;;;;;1.33;100.00;99717.45;1632307;86;21171;-72
2021/12/13 11:11:21;;;;;;;40.10;18.45;;;;;;;1.33;100.00;99710.15;1632444;86;21091;-72
2021/12/13 11:13:55;;;;;;;38.78;17.92;;;;;;;1.36;100.00;99708.02;1582574;89;21039;-72
2021/12/13 11:16:39;;;;;;;34.27;17.95;;;;;;;1.38;100.00;99703.98;1608385;88;21008;-72
2021/12/13 11:19:14;;;;;;;35.33;17.77;;;;;;;1.43;100.00;99703.23;1581797;89;21146;-72
2021/12/13 11:21:48;;;;;;;34.75;17.23;;;;;;;1.48;100.00;99706.00;1601868;87;21191;-73
2021/12/13 11:24:24;;;;;;;46.20;20.95;;;;;;;1.49;100.00;99708.98;1560658;90;21070;-72
2021/12/13 11:27:01;;;;;;;44.65;20.82;;;;;;;1.49;100.00;99703.58;1634826;86;21096;-72
2021/12/13 11:29:36;;;;;;;47.40;21.45;;;;;;;1.49;100.00;99714.40;1636509;86;21028;-72
2021/12/13 11:32:42;;;;;;;57.15;25.85;;;;;;;1.49;100.00;99712.52;1631551;86;21179;-72
2021/12/13 11:35:49;;;;;;;135.15;58.13;;;;;;;1.50;100.00;99706.56;1631911;86;21183;-73
2021/12/13 11:39:09;;;;;;;102.97;46.02;;;;;;;1.50;100.00;99716.86;1636742;86;21033;-72
2021/12/13 11:42:27;;;;;;;53.87;24.12;;;;;;;1.49;100.00;99712.52;1628066;86;21094;-72
2021/12/13 11:45:16;;;;;;;38.90;18.23;;;;;;;1.50;100.00;99714.15;1605157;87;21045;-71
2021/12/13 11:48:26;;;;;;;40.58;18.98;;;;;;;1.47;100.00;99716.00;1605465;87;21014;-72
2021/12/13 11:51:09;;;;;;;37.42;17.48;;;;;;;1.46;100.00;99717.61;1609084;88;21165;-72
2021/12/13 11:53:53;;;;;;;37.85;18.60;;;;;;;1.47;100.00;99728.72;1579390;88;21021;-73
2021/12/13 11:56:52;;;;;;;40.92;18.60;;;;;;;1.47;100.00;99729.53;1607563;87;21560;-72
2021/12/13 11:59:44;;;;;;;42.38;18.15;;;;;;;1.49;100.00;99725.22;1618521;87;21175;-73
2021/12/13 12:02:43;;;;;;;48.85;19.60;;;;;;;1.53;100.00;99734.47;1609145;88;21069;-73
2021/12/13 12:05:23;;;;;;;43.70;19.00;;;;;;;1.50;100.00;99742.55;1609710;87;20987;-72
2021/12/13 12:08:29;;;;;;;42.70;18.70;;;;;;;1.51;100.00;99736.61;1613521;87;21722;-73
2021/12/13 12:11:34;;;;;;;40.55;18.60;;;;;;;1.51;100.00;99744.19;1622448;87;21136;-72
2021/12/13 12:14:13;;;;;;;47.75;21.60;;;;;;;1.52;100.00;99739.06;1611216;88;21525;-73